Terminal Aerodrome Forecast
Issued by NWS

Home | Current Version | Previous Version | Text Only | Print | Product List | Glossary On
Versions: 1 2 3 4 5 6 7 8 9 10 11 12 13 14 15 16 17 18 19 20 21 22 23 24
000
FTUS43 KAPX 312320
TAFPLN
TAF
KPLN 312320Z 0100/0124 32010KT P6SM -SHSN OVC025
     FM010600 36007KT P6SM SCT025 BKN120
     FM011200 05009KT P6SM SCT025 BKN120=

USA.gov is the U.S. government's official web portal to all federal, state and local government web resources and services.